sensor_id;sensor_type;location;lat;lon;timestamp;pressure;altitude;pressure_sealevel;temperature;humidity
46408;BME280;32110;45.724;21.276;2023-02-15T00:00:18;102234.63;;;3.44;nan
46408;BME280;32110;45.724;21.276;2023-02-15T00:02:44;102174.88;;;3.02;nan
46408;BME280;32110;45.724;21.276;2023-02-15T00:05:09;102231.84;;;3.26;nan
46408;BME280;32110;45.724;21.276;2023-02-15T00:07:35;102232.34;;;3.19;nan
46408;BME280;32110;45.724;21.276;2023-02-15T00:10:00;102221.19;;;3.08;nan
46408;BME280;32110;45.724;21.276;2023-02-15T00:12:25;102232.84;;;3.13;nan
46408;BME280;32110;45.724;21.276;2023-02-15T00:14:51;102229.00;;;3.08;nan
46408;BME280;32110;45.724;21.276;2023-02-15T00:17:16;102225.16;;;3.02;nan
46408;BME280;32110;45.724;21.276;2023-02-15T00:19:41;102233.94;;;3.11;nan
46408;BME280;32110;45.724;21.276;2023-02-15T00:22:07;102216.66;;;3.00;nan
46408;BME280;32110;45.724;21.276;2023-02-15T00:24:33;102234.91;;;3.10;nan
46408;BME280;32110;45.724;21.276;2023-02-15T00:26:58;102237.78;;;3.07;nan
46408;BME280;32110;45.724;21.276;2023-02-15T00:29:23;102235.81;;;2.99;nan
46408;BME280;32110;45.724;21.276;2023-02-15T00:31:49;102219.59;;;2.86;nan
46408;BME280;32110;45.724;21.276;2023-02-15T00:34:21;102242.25;;;2.95;nan
46408;BME280;32110;45.724;21.276;2023-02-15T00:36:47;102249.09;;;2.96;nan
46408;BME280;32110;45.724;21.276;2023-02-15T00:39:13;102233.91;;;2.80;nan
46408;BME280;32110;45.724;21.276;2023-02-15T00:41:39;102248.00;;;2.77;nan
46408;BME280;32110;45.724;21.276;2023-02-15T00:44:04;102238.91;;;2.62;nan
46408;BME280;32110;45.724;21.276;2023-02-15T00:46:30;102238.91;;;2.62;nan
46408;BME280;32110;45.724;21.276;2023-02-15T00:48:56;102222.78;;;2.47;nan
46408;BME280;32110;45.724;21.276;2023-02-15T00:51:21;102219.13;;;2.50;nan
46408;BME280;32110;45.724;21.276;2023-02-15T00:53:47;102231.72;;;2.54;nan
46408;BME280;32110;45.724;21.276;2023-02-15T00:56:12;102232.81;;;2.52;nan
46408;BME280;32110;45.724;21.276;2023-02-15T00:58:37;102222.78;;;2.47;nan
46408;BME280;32110;45.724;21.276;2023-02-15T01:01:06;102227.28;;;2.45;nan
46408;BME280;32110;45.724;21.276;2023-02-15T01:03:32;102211.50;;;2.37;nan
46408;BME280;32110;45.724;21.276;2023-02-15T01:05:57;102227.78;;;2.39;nan
46408;BME280;32110;45.724;21.276;2023-02-15T01:08:23;102224.88;;;2.32;nan
46408;BME280;32110;45.724;21.276;2023-02-15T01:10:48;102221.31;;;2.33;nan
46408;BME280;32110;45.724;21.276;2023-02-15T01:13:15;102212.13;;;2.29;nan
46408;BME280;32110;45.724;21.276;2023-02-15T01:15:41;102219.09;;;2.29;nan
46408;BME280;32110;45.724;21.276;2023-02-15T01:18:07;102218.28;;;2.28;nan
46408;BME280;32110;45.724;21.276;2023-02-15T01:20:35;102213.91;;;2.29;nan
46408;BME280;32110;45.724;21.276;2023-02-15T01:23:01;102214.97;;;2.26;nan
46408;BME280;32110;45.724;21.276;2023-02-15T01:25:27;102213.19;;;2.27;nan
46408;BME280;32110;45.724;21.276;2023-02-15T01:27:52;102215.22;;;2.23;nan
46408;BME280;32110;45.724;21.276;2023-02-15T01:30:18;102207.06;;;2.28;nan
46408;BME280;32110;45.724;21.276;2023-02-15T01:32:43;102209.06;;;2.24;nan
46408;BME280;32110;45.724;21.276;2023-02-15T01:35:10;102193.16;;;2.18;nan
46408;BME280;32110;45.724;21.276;2023-02-15T01:37:36;102217.09;;;2.32;nan
46408;BME280;32110;45.724;21.276;2023-02-15T01:40:03;102219.53;;;2.34;nan
46408;BME280;32110;45.724;21.276;2023-02-15T01:42:29;102224.72;;;2.34;nan
46408;BME280;32110;45.724;21.276;2023-02-15T01:45:03;102222.03;;;2.36;nan
46408;BME280;32110;45.724;21.276;2023-02-15T01:47:43;102212.00;;;2.31;nan
46408;BME280;32110;45.724;21.276;2023-02-15T01:52:41;102217.09;;;2.32;nan
46408;BME280;32110;45.724;21.276;2023-02-15T01:55:09;102200.56;;;2.22;nan
46408;BME280;32110;45.724;21.276;2023-02-15T01:57:35;102208.13;;;2.25;nan
46408;BME280;32110;45.724;21.276;2023-02-15T02:00:03;102218.16;;;2.30;nan
46408;BME280;32110;45.724;21.276;2023-02-15T02:02:30;102197.41;;;2.19;nan
46408;BME280;32110;45.724;21.276;2023-02-15T02:05:00;102211.66;;;2.24;nan
46408;BME280;32110;45.724;21.276;2023-02-15T02:07:34;102212.63;;;2.23;nan
46408;BME280;32110;45.724;21.276;2023-02-15T02:10:04;102202.28;;;2.12;nan
46408;BME280;32110;45.724;21.276;2023-02-15T02:12:30;102217.84;;;2.23;nan
46408;BME280;32110;45.724;21.276;2023-02-15T02:14:57;102211.34;;;2.18;nan
46408;BME280;32110;45.724;21.276;2023-02-15T02:25:51;102218.31;;;2.17;nan
46408;BME280;32110;45.724;21.276;2023-02-15T02:33:31;102216.91;;;2.13;nan
46408;BME280;32110;45.724;21.276;2023-02-15T02:44:23;102211.88;;;2.00;nan
46408;BME280;32110;45.724;21.276;2023-02-15T02:47:06;102203.66;;;1.95;nan
46408;BME280;32110;45.724;21.276;2023-02-15T02:49:37;102205.44;;;1.95;nan
46408;BME280;32110;45.724;21.276;2023-02-15T02:52:07;102198.94;;;1.89;nan
46408;BME280;32110;45.724;21.276;2023-02-15T02:57:14;102196.25;;;1.79;nan
46408;BME280;32110;45.724;21.276;2023-02-15T02:59:42;102199.91;;;1.77;nan
46408;BME280;32110;45.724;21.276;2023-02-15T03:02:13;102193.91;;;1.76;nan
46408;BME280;32110;45.724;21.276;2023-02-15T03:04:46;102187.19;;;1.62;nan
46408;BME280;32110;45.724;21.276;2023-02-15T03:07:19;102200.66;;;1.67;nan
46408;BME280;32110;45.724;21.276;2023-02-15T03:09:52;102210.22;;;1.67;nan
46408;BME280;32110;45.724;21.276;2023-02-15T03:12:34;102204.66;;;1.60;nan
46408;BME280;32110;45.724;21.276;2023-02-15T03:15:14;102210.38;;;1.54;nan
46408;BME280;32110;45.724;21.276;2023-02-15T03:17:43;102210.97;;;1.46;nan
46408;BME280;32110;45.724;21.276;2023-02-15T03:20:37;102196.47;;;1.33;nan
46408;BME280;32110;45.724;21.276;2023-02-15T03:23:14;102205.44;;;1.28;nan
46408;BME280;32110;45.724;21.276;2023-02-15T03:25:43;102196.13;;;1.26;nan
46408;BME280;32110;45.724;21.276;2023-02-15T03:28:19;102174.91;;;1.10;nan
46408;BME280;32110;45.724;21.276;2023-02-15T03:30:49;102194.22;;;1.17;nan
46408;BME280;32110;45.724;21.276;2023-02-15T03:33:17;102208.88;;;1.18;nan
46408;BME280;32110;45.724;21.276;2023-02-15T03:35:49;102205.09;;;1.11;nan
46408;BME280;32110;45.724;21.276;2023-02-15T03:38:20;102191.16;;;1.00;nan
46408;BME280;32110;45.724;21.276;2023-02-15T03:40:53;102211.22;;;1.10;nan
46408;BME280;32110;45.724;21.276;2023-02-15T03:43:55;102204.84;;;1.02;nan
46408;BME280;32110;45.724;21.276;2023-02-15T03:46:37;102199.44;;;0.94;nan
46408;BME280;32110;45.724;21.276;2023-02-15T03:49:16;102205.34;;;0.96;nan
46408;BME280;32110;45.724;21.276;2023-02-15T03:51:45;102192.25;;;0.87;nan
46408;BME280;32110;45.724;21.276;2023-02-15T03:54:17;102208.38;;;0.90;nan
46408;BME280;32110;45.724;21.276;2023-02-15T03:57:05;102205.78;;;0.90;nan
46408;BME280;32110;45.724;21.276;2023-02-15T03:59:50;102193.31;;;0.84;nan
46408;BME280;32110;45.724;21.276;2023-02-15T07:33:13;102288.84;;;1.35;nan
46408;BME280;32110;45.724;21.276;2023-02-15T07:35:57;102307.97;;;1.57;nan
46408;BME280;32110;45.724;21.276;2023-02-15T07:38:24;102303.72;;;1.56;nan
46408;BME280;32110;45.724;21.276;2023-02-15T07:40:50;102302.28;;;1.29;nan
46408;BME280;32110;45.724;21.276;2023-02-15T07:43:16;102300.03;;;1.13;nan
46408;BME280;32110;45.724;21.276;2023-02-15T07:45:41;102299.66;;;1.06;nan
46408;BME280;32110;45.724;21.276;2023-02-15T07:48:07;102296.00;;;1.09;nan
46408;BME280;32110;45.724;21.276;2023-02-15T07:50:33;102308.66;;;1.14;nan
46408;BME280;32110;45.724;21.276;2023-02-15T07:53:01;102289.06;;;0.98;nan
46408;BME280;32110;45.724;21.276;2023-02-15T07:55:26;102301.22;;;1.09;nan
46408;BME280;32110;45.724;21.276;2023-02-15T07:57:52;102299.22;;;1.13;nan
46408;BME280;32110;45.724;21.276;2023-02-15T08:10:32;102299.94;;;1.60;nan
46408;BME280;32110;45.724;21.276;2023-02-15T08:23:04;102284.53;;;2.02;nan
46408;BME280;32110;45.724;21.276;2023-02-15T08:25:29;102318.75;;;2.18;nan
46408;BME280;32110;45.724;21.276;2023-02-15T08:27:54;102284.69;;;2.21;nan
46408;BME280;32110;45.724;21.276;2023-02-15T08:30:20;102267.22;;;2.23;nan
46408;BME280;32110;45.724;21.276;2023-02-15T08:32:45;102293.25;;;2.44;nan
46408;BME280;32110;45.724;21.276;2023-02-15T08:35:11;102278.66;;;2.53;nan
46408;BME280;32110;45.724;21.276;2023-02-15T08:37:37;102282.41;;;2.60;nan
46408;BME280;32110;45.724;21.276;2023-02-15T08:40:02;102261.88;;;2.57;nan
46408;BME280;32110;45.724;21.276;2023-02-15T08:42:28;102287.09;;;2.87;nan
46408;BME280;32110;45.724;21.276;2023-02-15T08:44:54;102270.94;;;2.84;nan
46408;BME280;32110;45.724;21.276;2023-02-15T08:47:19;102280.31;;;2.96;nan
46408;BME280;32110;45.724;21.276;2023-02-15T08:49:45;102294.41;;;3.14;nan
46408;BME280;32110;45.724;21.276;2023-02-15T08:52:10;102282.19;;;3.15;nan
46408;BME280;32110;45.724;21.276;2023-02-15T08:54:35;102275.50;;;3.22;nan
46408;BME280;32110;45.724;21.276;2023-02-15T08:57:01;102287.78;;;3.41;nan
46408;BME280;32110;45.724;21.276;2023-02-15T08:59:26;102276.28;;;3.44;nan
46408;BME280;32110;45.724;21.276;2023-02-15T09:01:52;102288.25;;;3.56;nan
46408;BME280;32110;45.724;21.276;2023-02-15T09:04:19;102287.88;;;3.60;nan
46408;BME280;32110;45.724;21.276;2023-02-15T09:06:46;102294.06;;;3.69;nan
46408;BME280;32110;45.724;21.276;2023-02-15T09:09:12;102292.44;;;3.78;nan
46408;BME280;32110;45.724;21.276;2023-02-15T09:11:40;102290.94;;;3.85;nan
46408;BME280;32110;45.724;21.276;2023-02-15T09:14:11;102294.53;;;3.94;nan
46408;BME280;32110;45.724;21.276;2023-02-15T09:16:39;102276.41;;;3.92;nan
46408;BME280;32110;45.724;21.276;2023-02-15T09:19:06;102283.03;;;4.06;nan
46408;BME280;32110;45.724;21.276;2023-02-15T09:21:33;102285.53;;;4.17;nan
46408;BME280;32110;45.724;21.276;2023-02-15T09:24:03;102283.72;;;4.28;nan
46408;BME280;32110;45.724;21.276;2023-02-15T09:26:31;102285.13;;;4.32;nan
46408;BME280;32110;45.724;21.276;2023-02-15T09:28:59;102274.97;;;4.29;nan
46408;BME280;32110;45.724;21.276;2023-02-15T09:31:28;102286.34;;;4.47;nan
46408;BME280;32110;45.724;21.276;2023-02-15T09:33:54;102289.09;;;4.55;nan
46408;BME280;32110;45.724;21.276;2023-02-15T09:36:22;102293.75;;;4.61;nan
46408;BME280;32110;45.724;21.276;2023-02-15T09:38:53;102292.38;;;4.67;nan
46408;BME280;32110;45.724;21.276;2023-02-15T09:54:33;102273.06;;;5.44;nan
46408;BME280;32110;45.724;21.276;2023-02-15T09:57:16;102275.00;;;5.60;nan
46408;BME280;32110;45.724;21.276;2023-02-15T09:59:57;102253.84;;;5.63;nan
46408;BME280;32110;45.724;21.276;2023-02-15T10:05:21;102266.66;;;5.84;nan
46408;BME280;32110;45.724;21.276;2023-02-15T10:21:35;102238.00;;;6.28;nan
46408;BME280;32110;45.724;21.276;2023-02-15T10:27:02;102236.91;;;6.39;nan
46408;BME280;32110;45.724;21.276;2023-02-15T10:29:36;102239.66;;;6.55;nan
46408;BME280;32110;45.724;21.276;2023-02-15T10:35:32;102210.66;;;6.49;nan
46408;BME280;32110;45.724;21.276;2023-02-15T10:37:56;102230.09;;;6.46;nan
46408;BME280;32110;45.724;21.276;2023-02-15T10:43:23;102219.38;;;6.31;nan
46408;BME280;32110;45.724;21.276;2023-02-15T10:50:51;102212.22;;;6.59;nan
46408;BME280;32110;45.724;21.276;2023-02-15T11:06:09;102195.13;;;6.73;nan
46408;BME280;32110;45.724;21.276;2023-02-15T11:08:41;102195.22;;;6.90;nan
46408;BME280;32110;45.724;21.276;2023-02-15T11:11:16;102195.38;;;6.96;nan
46408;BME280;32110;45.724;21.276;2023-02-15T11:13:48;102189.88;;;7.08;nan
46408;BME280;32110;45.724;21.276;2023-02-15T11:18:51;102184.56;;;7.26;nan
46408;BME280;32110;45.724;21.276;2023-02-15T11:21:54;102182.56;;;7.19;nan
46408;BME280;32110;45.724;21.276;2023-02-15T11:24:26;102184.69;;;7.24;nan
46408;BME280;32110;45.724;21.276;2023-02-15T11:27:10;102184.56;;;7.26;nan
46408;BME280;32110;45.724;21.276;2023-02-15T11:32:21;102169.69;;;7.51;nan
46408;BME280;32110;45.724;21.276;2023-02-15T11:42:27;102164.97;;;8.12;nan
46408;BME280;32110;45.724;21.276;2023-02-15T11:45:21;102161.88;;;8.16;nan
46408;BME280;32110;45.724;21.276;2023-02-15T11:47:48;102149.59;;;8.17;nan
46408;BME280;32110;45.724;21.276;2023-02-15T11:50:16;102154.63;;;8.35;nan
46408;BME280;32110;45.724;21.276;2023-02-15T11:52:43;102152.66;;;8.37;nan
46408;BME280;32110;45.724;21.276;2023-02-15T11:55:14;102161.03;;;8.40;nan
46408;BME280;32110;45.724;21.276;2023-02-15T11:57:47;102142.38;;;8.10;nan
46408;BME280;32110;45.724;21.276;2023-02-15T12:00:24;102155.97;;;8.06;nan
46408;BME280;32110;45.724;21.276;2023-02-15T12:02:54;102156.31;;;8.03;nan
46408;BME280;32110;45.724;21.276;2023-02-15T12:05:23;102140.09;;;7.83;nan
46408;BME280;32110;45.724;21.276;2023-02-15T12:07:54;102141.91;;;7.91;nan
46408;BME280;32110;45.724;21.276;2023-02-15T14:35:56;102063.22;;;8.55;nan
46408;BME280;32110;45.724;21.276;2023-02-15T22:35:14;102005.22;;;0.46;nan
46408;BME280;32110;45.724;21.276;2023-02-15T22:40:06;101996.28;;;0.39;nan
46408;BME280;32110;45.724;21.276;2023-02-15T22:42:31;101987.78;;;0.26;nan
46408;BME280;32110;45.724;21.276;2023-02-15T22:44:57;102009.25;;;0.39;nan
46408;BME280;32110;45.724;21.276;2023-02-15T22:47:27;101996.97;;;0.30;nan
46408;BME280;32110;45.724;21.276;2023-02-15T22:49:53;101988.03;;;0.23;nan
46408;BME280;32110;45.724;21.276;2023-02-15T22:52:19;102011.38;;;0.34;nan
46408;BME280;32110;45.724;21.276;2023-02-15T22:54:45;102001.00;;;0.23;nan
46408;BME280;32110;45.724;21.276;2023-02-15T22:57:30;101988.97;;;0.10;nan
46408;BME280;32110;45.724;21.276;2023-02-15T22:59:56;102012.28;;;0.21;nan
46408;BME280;32110;45.724;21.276;2023-02-15T23:02:21;101995.69;;;0.13;nan
46408;BME280;32110;45.724;21.276;2023-02-15T23:04:47;102002.63;;;0.12;nan
46408;BME280;32110;45.724;21.276;2023-02-15T23:07:15;101986.13;;;0.02;nan
46408;BME280;32110;45.724;21.276;2023-02-15T23:09:41;102018.66;;;0.17;nan
46408;BME280;32110;45.724;21.276;2023-02-15T23:12:33;102016.28;;;0.14;nan
46408;BME280;32110;45.724;21.276;2023-02-15T23:15:17;102019.81;;;0.13;nan
46408;BME280;32110;45.724;21.276;2023-02-15T23:17:43;102017.47;;;0.10;nan
46408;BME280;32110;45.724;21.276;2023-02-15T23:20:13;102021.31;;;0.05;nan
46408;BME280;32110;45.724;21.276;2023-02-15T23:42:46;102007.06;;;-0.24;nan
46408;BME280;32110;45.724;21.276;2023-02-15T23:45:20;102012.00;;;-0.20;nan
46408;BME280;32110;45.724;21.276;2023-02-15T23:47:46;101996.22;;;-0.29;nan
46408;BME280;32110;45.724;21.276;2023-02-15T23:50:30;101891.97;;;-1.00;nan
46408;BME280;32110;45.724;21.276;2023-02-15T23:52:56;102003.16;;;-0.29;nan
46408;BME280;32110;45.724;21.276;2023-02-15T23:55:24;102013.50;;;-0.29;nan
46408;BME280;32110;45.724;21.276;2023-02-15T23:57:53;102009.38;;;-0.32;nan
